Time;durP1;ratioP1;P1;durP2;ratioP2;P2;SDS_P1;SDS_P2;PMS_P1;PMS_P2;Temp;Humidity;BMP_temperature;BMP_pressure;BME280_temperature;BME280_humidity;BME280_pressure;Samples;Min_cycle;Max_cycle;Signal;HPM_P1;HPM_P2
2022/09/19 00:01:51;;;;;;;1.48;1.38;;;;;;;11.82;nan;-24147.09;5032469;28;20627;-75
2022/09/19 00:04:22;;;;;;;1.73;1.63;;;;;;;11.87;nan;-24148.50;5033578;28;20174;-75
2022/09/19 00:06:49;;;;;;;1.60;1.50;;;;;;;11.94;nan;-24150.47;5031913;28;20191;-75
2022/09/19 00:09:18;;;;;;;1.30;1.20;;;;;;;11.54;nan;-24139.34;5032356;28;20178;-74
2022/09/19 00:11:46;;;;;;;1.52;1.42;;;;;;;11.79;nan;-24146.25;5031687;28;20168;-75
2022/09/19 00:14:14;;;;;;;1.50;1.40;;;;;;;11.69;nan;-24143.41;5031640;28;20195;-74
2022/09/19 00:16:44;;;;;;;1.50;1.40;;;;;;;11.50;nan;-24138.34;5033488;28;20236;-74
2022/09/19 00:19:11;;;;;;;2.40;1.35;;;;;;;11.91;nan;-24149.63;5032102;28;20183;-74
2022/09/19 00:21:40;;;;;;;1.48;1.38;;;;;;;11.59;nan;-24140.59;5033290;28;20175;-74
2022/09/19 00:26:56;;;;;;;1.48;1.35;;;;;;;11.52;nan;-24138.78;5033668;28;20221;-74
2022/09/19 00:29:23;;;;;;;1.50;1.20;;;;;;;11.27;nan;-24131.88;5033954;28;20617;-74
2022/09/19 00:31:49;;;;;;;3.70;2.22;;;;;;;11.55;nan;-24139.47;5034393;28;20176;-75
2022/09/19 00:34:15;;;;;;;1.60;1.50;;;;;;;11.01;nan;-24124.69;5033634;28;20241;-74
2022/09/19 00:36:42;;;;;;;1.60;1.50;;;;;;;11.21;nan;-24130.19;5032277;28;20210;-75
2022/09/19 00:39:09;;;;;;;1.65;1.48;;;;;;;11.33;nan;-24133.56;5032503;28;20167;-75
2022/09/19 00:41:36;;;;;;;2.22;1.60;;;;;;;11.40;nan;-24135.38;5032806;28;20167;-75
2022/09/19 00:44:24;;;;;;;2.03;1.75;;;;;;;11.58;nan;-24140.31;5032884;28;20163;-76
2022/09/19 00:46:51;;;;;;;1.45;1.35;;;;;;;11.61;nan;-24141.31;5031853;28;20199;-75
2022/09/19 00:49:18;;;;;;;1.48;1.38;;;;;;;11.45;nan;-24136.81;5030601;28;20525;-74
2022/09/19 00:51:50;;;;;;;1.40;1.30;;;;;;;11.08;nan;-24126.66;5032410;28;20163;-75
2022/09/19 00:54:21;;;;;;;1.70;1.60;;;;;;;11.33;nan;-24133.56;5030869;28;20217;-75
2022/09/19 00:56:51;;;;;;;1.40;1.30;;;;;;;11.35;nan;-24134.13;5033864;28;20172;-75
2022/09/19 00:59:18;;;;;;;1.45;1.35;;;;;;;11.21;nan;-24130.19;5036558;28;20546;-75
2022/09/19 01:01:44;;;;;;;1.50;1.40;;;;;;;11.42;nan;-24135.97;5032785;28;20609;-75
2022/09/19 01:04:18;;;;;;;1.98;1.50;;;;;;;11.24;nan;-24131.03;5030276;28;20211;-74
2022/09/19 01:07:13;;;;;;;1.55;1.45;;;;;;;10.92;nan;-24122.13;5031800;28;20186;-74
2022/09/19 01:09:56;;;;;;;1.75;1.48;;;;;;;11.05;nan;-24125.81;5033284;28;20638;-74
2022/09/19 01:13:09;;;;;;;2.10;1.42;;;;;;;10.93;nan;-24122.28;5034818;28;20225;-74
2022/09/19 01:15:41;;;;;;;1.60;1.50;;;;;;;10.45;nan;-24109.03;5031909;28;20179;-74
2022/09/19 01:18:08;;;;;;;1.88;1.77;;;;;;;10.84;nan;-24119.75;5034949;28;20718;-74
2022/09/19 01:24:20;;;;;;;3.03;1.65;;;;;;;10.46;nan;-24109.16;5012563;28;20260;-75
2022/09/19 01:27:18;;;;;;;1.55;1.45;;;;;;;9.75;nan;-24089.53;5027997;28;20187;-75
2022/09/19 01:30:03;;;;;;;1.63;1.50;;;;;;;9.57;nan;-24084.44;5035310;28;20188;-75
2022/09/19 01:32:35;;;;;;;1.73;1.63;;;;;;;10.22;nan;-24102.38;5035070;28;20250;-75
2022/09/19 01:35:06;;;;;;;2.03;1.80;;;;;;;10.01;nan;-24096.72;5033991;28;20179;-75
2022/09/19 01:37:47;;;;;;;1.77;1.67;;;;;;;9.62;nan;-24085.84;5035104;28;20182;-76
2022/09/19 01:40:13;;;;;;;1.70;1.60;;;;;;;9.66;nan;-24086.84;5035126;28;20550;-76
2022/09/19 01:42:58;;;;;;;1.80;1.70;;;;;;;9.82;nan;-24091.22;5034759;28;20226;-76
2022/09/19 01:45:36;;;;;;;1.60;1.50;;;;;;;9.80;nan;-24090.66;5034918;28;20199;-76
2022/09/19 01:48:08;;;;;;;2.03;1.83;;;;;;;9.87;nan;-24092.78;5033961;28;20172;-75
2022/09/19 01:50:39;;;;;;;2.17;1.57;;;;;;;9.63;nan;-24086.00;5042121;28;20254;-75
2022/09/19 01:53:12;;;;;;;1.50;1.40;;;;;;;9.75;nan;-24089.53;5018524;28;20175;-76
2022/09/19 01:55:45;;;;;;;1.70;1.60;;;;;;;9.54;nan;-24083.59;5015789;28;20172;-76
2022/09/19 01:58:23;;;;;;;2.13;1.40;;;;;;;9.61;nan;-24085.44;5034606;28;20214;-75
2022/09/19 02:01:12;;;;;;;1.80;1.63;;;;;;;9.21;nan;-24074.25;5034220;28;20168;-76
2022/09/19 02:04:01;;;;;;;5.77;1.60;;;;;;;9.16;nan;-24072.84;5034561;28;20745;-75
2022/09/19 02:06:35;;;;;;;2.03;1.83;;;;;;;9.29;nan;-24076.66;5034449;28;20207;-76
2022/09/19 02:09:10;;;;;;;1.40;1.30;;;;;;;9.50;nan;-24082.47;5034373;28;20163;-76
2022/09/19 02:11:36;;;;;;;1.60;1.50;;;;;;;9.27;nan;-24075.97;5016190;28;20178;-75
2022/09/19 02:14:10;;;;;;;1.90;1.50;;;;;;;9.45;nan;-24081.06;5033926;28;20233;-76
2022/09/19 02:17:04;;;;;;;1.50;1.40;;;;;;;9.71;nan;-24088.41;5032212;28;20182;-76
2022/09/19 02:19:39;;;;;;;1.40;1.30;;;;;;;9.91;nan;-24093.91;5016011;28;20214;-76
2022/09/19 02:22:14;;;;;;;1.53;1.43;;;;;;;9.75;nan;-24089.38;5032994;28;20167;-76
2022/09/19 02:24:44;;;;;;;2.23;1.87;;;;;;;9.70;nan;-24088.13;5033255;28;20278;-76
2022/09/19 02:27:17;;;;;;;1.83;1.27;;;;;;;9.62;nan;-24085.72;5017692;28;20167;-76
2022/09/19 02:29:53;;;;;;;1.83;1.50;;;;;;;9.80;nan;-24090.81;5037525;28;20175;-76
2022/09/19 02:32:20;;;;;;;1.67;1.40;;;;;;;9.81;nan;-24090.94;5035677;28;20175;-76
2022/09/19 02:34:49;;;;;;;1.30;1.20;;;;;;;9.81;nan;-24091.09;5036370;28;20207;-75
2022/09/19 02:37:35;;;;;;;1.40;1.30;;;;;;;10.03;nan;-24097.31;5037541;28;20229;-76
2022/09/19 02:40:25;;;;;;;1.60;1.50;;;;;;;10.43;nan;-24108.47;5016745;28;20178;-76
2022/09/19 02:43:06;;;;;;;1.40;1.30;;;;;;;9.85;nan;-24092.06;5015369;28;20175;-75
2022/09/19 02:45:45;;;;;;;1.30;1.20;;;;;;;10.13;nan;-24099.97;5033011;28;20198;-75
2022/09/19 02:48:24;;;;;;;1.77;1.63;;;;;;;10.09;nan;-24098.84;5033516;28;20245;-75
2022/09/19 02:50:58;;;;;;;1.47;1.37;;;;;;;10.11;nan;-24099.41;5015582;28;20317;-75
2022/09/19 02:53:29;;;;;;;1.50;1.40;;;;;;;10.26;nan;-24103.66;5031813;28;20190;-75
2022/09/19 02:56:01;;;;;;;1.30;1.20;;;;;;;9.85;nan;-24092.22;5032890;28;20152;-75
2022/09/19 02:58:40;;;;;;;1.50;1.40;;;;;;;9.87;nan;-24092.78;5015171;28;20179;-75
2022/09/19 03:01:14;;;;;;;1.63;1.50;;;;;;;9.46;nan;-24081.19;5045993;28;20177;-75
2022/09/19 03:06:39;;;;;;;1.40;1.30;;;;;;;8.96;nan;-24067.19;5034559;28;20214;-75
2022/09/19 03:09:08;;;;;;;1.70;1.60;;;;;;;9.18;nan;-24073.41;5052634;28;20203;-75
2022/09/19 03:11:35;;;;;;;1.87;1.47;;;;;;;9.22;nan;-24074.56;5052491;28;20166;-74
2022/09/19 03:14:01;;;;;;;2.20;1.90;;;;;;;9.54;nan;-24083.47;5042313;28;20186;-75
2022/09/19 03:16:41;;;;;;;1.70;1.60;;;;;;;8.93;nan;-24066.50;5007282;28;20185;-75
2022/09/19 03:19:09;;;;;;;2.37;1.70;;;;;;;9.44;nan;-24080.63;5025379;28;20646;-74
2022/09/19 03:21:37;;;;;;;1.60;1.50;;;;;;;9.35;nan;-24078.22;5006920;28;20195;-74
2022/09/19 03:24:05;;;;;;;1.80;1.57;;;;;;;9.28;nan;-24076.38;5026405;28;20199;-74
2022/09/19 03:26:35;;;;;;;1.13;1.07;;;;;;;9.07;nan;-24070.44;5024826;28;20218;-74
2022/09/19 03:29:04;;;;;;;2.50;1.53;;;;;;;8.81;nan;-24063.25;5025856;28;20233;-75
2022/09/19 03:31:30;;;;;;;1.30;1.20;;;;;;;8.73;nan;-24060.97;5026002;28;20213;-74
2022/09/19 03:33:56;;;;;;;1.30;1.20;;;;;;;8.90;nan;-24065.66;5006641;28;20560;-74
2022/09/19 03:36:22;;;;;;;1.30;1.20;;;;;;;9.05;nan;-24069.88;5007778;28;20190;-74
2022/09/19 03:38:48;;;;;;;2.43;1.77;;;;;;;8.92;nan;-24066.22;5025677;28;20194;-74
2022/09/19 03:41:16;;;;;;;1.50;1.40;;;;;;;9.03;nan;-24069.19;5024587;28;20179;-75
2022/09/19 03:43:44;;;;;;;1.40;1.30;;;;;;;8.97;nan;-24067.47;5025487;28;20620;-74
2022/09/19 03:46:11;;;;;;;1.57;1.40;;;;;;;9.02;nan;-24069.03;5007583;28;20233;-74
2022/09/19 03:48:38;;;;;;;1.70;1.17;;;;;;;8.56;nan;-24056.03;5024108;28;20223;-75
2022/09/19 03:51:06;;;;;;;1.97;1.60;;;;;;;8.92;nan;-24066.06;5025755;28;20542;-75
2022/09/19 03:53:31;;;;;;;1.50;1.40;;;;;;;8.99;nan;-24068.19;5025694;28;20544;-76
2022/09/19 03:55:58;;;;;;;2.00;1.63;;;;;;;8.93;nan;-24066.34;5006959;28;20190;-76
2022/09/19 03:58:24;;;;;;;1.50;1.40;;;;;;;9.06;nan;-24070.03;5025432;28;20175;-76
2022/09/19 04:00:50;;;;;;;2.00;1.50;;;;;;;9.29;nan;-24076.66;5008384;28;20206;-76
2022/09/19 04:03:18;;;;;;;1.60;1.47;;;;;;;9.16;nan;-24073.00;5038814;28;20229;-76
2022/09/19 04:05:45;;;;;;;2.40;1.83;;;;;;;9.62;nan;-24085.72;5025663;28;20203;-76
2022/09/19 04:08:11;;;;;;;3.00;1.70;;;;;;;9.39;nan;-24079.22;5039785;28;20638;-75
2022/09/19 04:10:37;;;;;;;2.23;1.97;;;;;;;9.38;nan;-24078.94;5040578;28;20690;-75
2022/09/19 04:13:03;;;;;;;2.13;1.67;;;;;;;9.16;nan;-24073.00;5002538;28;20553;-76
2022/09/19 04:15:28;;;;;;;2.33;2.13;;;;;;;9.06;nan;-24070.16;5011104;28;20290;-75
2022/09/19 04:17:53;;;;;;;1.60;1.50;;;;;;;9.27;nan;-24075.97;5028980;28;20187;-76
2022/09/19 04:20:19;;;;;;;2.00;1.80;;;;;;;9.32;nan;-24077.38;5031590;28;20167;-76
2022/09/19 04:22:44;;;;;;;2.10;1.90;;;;;;;9.17;nan;-24073.28;5031511;28;20168;-75
2022/09/19 04:25:10;;;;;;;2.23;1.90;;;;;;;9.14;nan;-24072.28;5013350;28;20264;-74
2022/09/19 04:27:39;;;;;;;2.20;2.00;;;;;;;9.13;nan;-24072.00;5031674;28;20179;-75
2022/09/19 04:30:05;;;;;;;2.10;1.53;;;;;;;9.26;nan;-24075.69;5030158;28;20278;-76
2022/09/19 04:32:31;;;;;;;2.40;1.70;;;;;;;9.31;nan;-24077.09;5031316;28;20317;-76
2022/09/19 04:34:57;;;;;;;1.80;1.70;;;;;;;9.67;nan;-24087.13;5031000;28;20272;-76
2022/09/19 04:37:23;;;;;;;1.60;1.50;;;;;;;9.66;nan;-24086.97;5031672;28;20186;-80
2022/09/19 04:39:48;;;;;;;1.60;1.50;;;;;;;9.75;nan;-24089.53;5013427;28;20179;-74
2022/09/19 04:42:16;;;;;;;1.90;1.70;;;;;;;9.84;nan;-24091.94;5031068;28;20171;-74
2022/09/19 04:44:42;;;;;;;2.20;1.70;;;;;;;9.95;nan;-24094.91;5033765;28;20175;-76
2022/09/19 04:47:08;;;;;;;1.70;1.53;;;;;;;9.96;nan;-24095.31;5035613;28;20306;-77
2022/09/19 04:49:39;;;;;;;1.73;1.63;;;;;;;10.19;nan;-24101.69;5035261;28;20212;-75
2022/09/19 04:52:12;;;;;;;2.23;1.90;;;;;;;10.12;nan;-24099.69;5035087;28;20170;-75
2022/09/19 04:54:37;;;;;;;5.00;1.63;;;;;;;10.06;nan;-24098.16;5017390;28;20171;-77
2022/09/19 04:57:08;;;;;;;1.60;1.40;;;;;;;10.33;nan;-24105.63;5019521;28;20179;-83
2022/09/19 04:59:38;;;;;;;2.17;1.87;;;;;;;10.23;nan;-24102.81;5033570;28;20183;-78
2022/09/19 05:02:07;;;;;;;1.60;1.50;;;;;;;10.90;nan;-24121.44;5031962;28;20223;-79
2022/09/19 05:04:32;;;;;;;2.00;1.80;;;;;;;10.96;nan;-24123.13;5025118;28;20195;-80
2022/09/19 05:06:58;;;;;;;2.90;1.83;;;;;;;10.92;nan;-24122.00;5033987;28;20184;-77
2022/09/19 05:09:24;;;;;;;2.45;1.80;;;;;;;10.84;nan;-24119.88;5033192;28;20223;-79
2022/09/19 05:11:50;;;;;;;2.05;1.85;;;;;;;10.38;nan;-24107.03;5009191;28;20183;-80
2022/09/19 05:14:16;;;;;;;1.33;1.23;;;;;;;11.40;nan;-24135.53;5033061;28;20191;-80
2022/09/19 05:16:42;;;;;;;1.60;1.50;;;;;;;11.33;nan;-24133.56;5033284;28;20567;-79
2022/09/19 05:19:08;;;;;;;2.20;1.75;;;;;;;11.37;nan;-24134.53;5017129;28;20175;-79
2022/09/19 05:21:34;;;;;;;3.25;1.88;;;;;;;11.56;nan;-24139.75;5017190;28;20256;-79
2022/09/19 05:24:00;;;;;;;2.15;1.90;;;;;;;11.81;nan;-24146.81;5035747;28;20178;-79
2022/09/19 05:26:27;;;;;;;3.17;1.70;;;;;;;11.37;nan;-24134.69;5034863;28;20230;-79
2022/09/19 05:28:52;;;;;;;4.47;1.80;;;;;;;11.52;nan;-24138.78;5017107;28;20180;-79
2022/09/19 05:31:19;;;;;;;1.92;1.75;;;;;;;11.71;nan;-24143.97;5016879;28;20245;-79
2022/09/19 05:33:48;;;;;;;1.40;1.30;;;;;;;11.67;nan;-24142.84;5016482;28;20203;-80
2022/09/19 05:36:13;;;;;;;2.00;1.60;;;;;;;11.79;nan;-24146.25;5034609;28;20180;-80
2022/09/19 05:38:41;;;;;;;1.92;1.70;;;;;;;11.58;nan;-24140.31;5033944;28;20182;-78
2022/09/19 05:41:07;;;;;;;1.75;1.65;;;;;;;11.71;nan;-24143.97;5034375;28;20176;-80
2022/09/19 05:43:33;;;;;;;2.45;1.98;;;;;;;11.92;nan;-24150.03;5034880;28;20549;-80
2022/09/19 05:45:59;;;;;;;2.55;1.63;;;;;;;11.54;nan;-24139.34;5016326;28;20264;-81
2022/09/19 05:48:25;;;;;;;8.55;4.03;;;;;;;11.72;nan;-24144.41;5034549;28;20226;-78
2022/09/19 05:50:52;;;;;;;4.40;2.92;;;;;;;12.14;nan;-24155.97;5035898;28;20245;-78
2022/09/19 05:56:04;;;;;;;3.95;2.47;;;;;;;12.28;nan;-24159.91;5034465;28;20724;-78
2022/09/19 05:58:33;;;;;;;6.00;2.90;;;;;;;12.50;nan;-24165.94;5032495;28;20179;-80
2022/09/19 06:01:03;;;;;;;2.85;2.15;;;;;;;12.35;nan;-24162.00;5034071;28;20195;-79
2022/09/19 06:03:28;;;;;;;3.15;2.22;;;;;;;12.63;nan;-24169.75;5032082;28;20233;-79
2022/09/19 06:05:55;;;;;;;4.43;2.88;;;;;;;12.87;nan;-24176.22;5033791;28;20188;-79
2022/09/19 06:08:22;;;;;;;7.05;2.72;;;;;;;12.74;nan;-24172.69;5016290;28;20179;-79
2022/09/19 06:10:49;;;;;;;3.28;2.35;;;;;;;13.16;nan;-24184.50;5034035;28;20524;-80
2022/09/19 06:13:20;;;;;;;6.50;2.70;;;;;;;13.15;nan;-24184.22;5016063;28;20642;-78
2022/09/19 06:15:46;;;;;;;2.85;2.17;;;;;;;13.51;nan;-24194.19;5031714;28;20266;-78
2022/09/19 06:18:12;;;;;;;7.68;2.47;;;;;;;13.76;nan;-24201.09;5015337;28;20611;-79
2022/09/19 06:20:38;;;;;;;3.90;2.20;;;;;;;13.76;nan;-24201.09;5033701;28;20188;-79
2022/09/19 06:23:06;;;;;;;4.72;2.13;;;;;;;13.58;nan;-24196.03;5033129;28;20205;-78
2022/09/19 06:25:33;;;;;;;2.67;2.10;;;;;;;13.95;nan;-24206.41;5015031;28;20191;-78
2022/09/19 06:28:01;;;;;;;2.28;1.65;;;;;;;14.45;nan;-24220.31;5032790;28;20171;-76
2022/09/19 06:30:28;;;;;;;1.50;1.40;;;;;;;14.23;nan;-24214.13;5032102;28;20179;-77
2022/09/19 06:32:54;;;;;;;1.65;1.30;;;;;;;14.57;nan;-24223.53;5014835;28;20175;-79
2022/09/19 06:35:21;;;;;;;1.55;1.42;;;;;;;14.59;nan;-24224.09;5032427;28;20176;-78
2022/09/19 06:37:47;;;;;;;1.40;1.30;;;;;;;14.69;nan;-24226.91;5032892;28;20167;-76
2022/09/19 06:40:13;;;;;;;2.58;1.80;;;;;;;15.19;nan;-24240.63;5032872;28;20171;-75
2022/09/19 06:42:38;;;;;;;1.58;1.40;;;;;;;14.92;nan;-24233.22;5033236;28;20175;-77
2022/09/19 06:45:06;;;;;;;1.80;1.52;;;;;;;14.98;nan;-24235.03;5016265;28;20210;-77
2022/09/19 06:47:32;;;;;;;1.38;1.27;;;;;;;15.36;nan;-24245.38;5014124;28;20669;-77
2022/09/19 06:50:00;;;;;;;1.75;1.63;;;;;;;15.37;nan;-24245.81;5032239;28;20205;-77
2022/09/19 06:52:26;;;;;;;1.50;1.38;;;;;;;15.38;nan;-24245.94;5032462;28;20216;-77
2022/09/19 06:54:52;;;;;;;1.70;1.60;;;;;;;15.47;nan;-24248.63;5032266;28;20241;-76
2022/09/19 06:57:17;;;;;;;2.22;1.60;;;;;;;15.45;nan;-24247.91;5032187;28;20230;-80
2022/09/19 06:59:43;;;;;;;1.40;1.30;;;;;;;15.76;nan;-24256.59;5032247;28;20239;-77
2022/09/19 07:02:09;;;;;;;1.67;1.50;;;;;;;15.57;nan;-24251.28;5030509;28;20231;-76
2022/09/19 07:04:34;;;;;;;1.55;1.40;;;;;;;15.83;nan;-24258.56;5032225;28;20232;-76
2022/09/19 07:07:01;;;;;;;1.77;1.00;;;;;;;15.77;nan;-24256.88;5015116;28;20661;-77
2022/09/19 07:09:26;;;;;;;1.33;1.23;;;;;;;16.18;nan;-24268.06;5032506;28;20190;-77
2022/09/19 07:11:53;;;;;;;1.55;1.30;;;;;;;16.34;nan;-24272.53;5037501;28;20175;-77
2022/09/19 07:14:19;;;;;;;1.40;1.20;;;;;;;16.22;nan;-24269.19;5045920;28;20177;-77
2022/09/19 07:16:44;;;;;;;1.40;1.30;;;;;;;16.57;nan;-24278.81;5036243;28;20262;-76
2022/09/19 07:19:09;;;;;;;1.27;1.17;;;;;;;16.35;nan;-24272.81;5032649;28;20171;-76
2022/09/19 07:21:35;;;;;;;2.20;1.40;;;;;;;16.33;nan;-24272.41;5031742;28;20175;-78
2022/09/19 07:24:03;;;;;;;1.27;1.17;;;;;;;16.72;nan;-24283.03;5033112;28;20163;-77
2022/09/19 07:26:28;;;;;;;1.40;1.30;;;;;;;16.55;nan;-24278.28;5016021;28;20211;-76
2022/09/19 07:28:53;;;;;;;1.50;1.30;;;;;;;16.47;nan;-24276.16;5031733;28;20172;-78
2022/09/19 07:31:19;;;;;;;1.35;1.20;;;;;;;16.75;nan;-24283.88;5015347;28;20176;-77
2022/09/19 07:33:45;;;;;;;1.40;1.30;;;;;;;16.68;nan;-24282.03;5032178;28;20183;-76
2022/09/19 07:36:11;;;;;;;1.25;1.15;;;;;;;16.64;nan;-24280.78;5032279;28;20541;-76
2022/09/19 07:38:37;;;;;;;1.17;1.08;;;;;;;16.40;nan;-24274.22;5014884;28;20627;-77
2022/09/19 07:41:03;;;;;;;1.40;1.25;;;;;;;16.54;nan;-24278.13;5031896;28;20186;-77
2022/09/19 07:43:28;;;;;;;1.30;1.20;;;;;;;16.36;nan;-24273.09;5030619;28;20178;-78
2022/09/19 07:45:54;;;;;;;1.50;1.40;;;;;;;17.09;nan;-24293.22;5032012;28;20206;-77
2022/09/19 07:48:20;;;;;;;1.00;1.00;;;;;;;17.14;nan;-24294.63;5031824;28;20187;-78
2022/09/19 07:50:47;;;;;;;1.73;1.13;;;;;;;17.57;nan;-24306.47;5028083;28;20230;-78
2022/09/19 07:53:18;;;;;;;3.92;1.17;;;;;;;17.33;nan;-24299.91;5031152;28;20639;-78
2022/09/19 07:55:51;;;;;;;1.38;1.20;;;;;;;17.51;nan;-24304.94;5031313;28;20175;-79
2022/09/19 07:58:18;;;;;;;1.25;1.15;;;;;;;17.73;nan;-24310.81;5025879;28;20334;-78
2022/09/19 08:00:45;;;;;;;1.42;1.23;;;;;;;17.93;nan;-24316.53;5011796;28;20172;-78
2022/09/19 08:03:13;;;;;;;1.30;1.20;;;;;;;18.04;nan;-24319.44;5011861;28;20227;-77
2022/09/19 08:05:41;;;;;;;1.92;1.13;;;;;;;18.15;nan;-24322.53;5011698;28;20200;-77
2022/09/19 08:08:10;;;;;;;2.05;1.02;;;;;;;18.42;nan;-24330.03;4993990;28;20190;-77
2022/09/19 08:10:36;;;;;;;1.10;1.00;;;;;;;18.73;nan;-24338.53;5011612;28;20222;-77
2022/09/19 08:13:04;;;;;;;1.20;1.08;;;;;;;18.43;nan;-24330.19;4993971;28;20598;-77
2022/09/19 08:15:33;;;;;;;1.88;1.40;;;;;;;19.02;nan;-24346.47;5011854;28;20523;-78
2022/09/19 08:18:06;;;;;;;1.15;1.00;;;;;;;18.85;nan;-24341.88;4993817;28;20175;-78
2022/09/19 08:20:33;;;;;;;1.27;1.10;;;;;;;19.04;nan;-24347.03;4998148;28;20657;-78
2022/09/19 08:23:02;;;;;;;1.33;1.23;;;;;;;18.94;nan;-24344.25;4998968;28;20176;-77
2022/09/19 08:25:32;;;;;;;1.20;1.10;;;;;;;19.14;nan;-24349.81;4999341;28;20254;-77
2022/09/19 08:27:58;;;;;;;1.88;1.35;;;;;;;19.26;nan;-24353.00;5015959;28;20708;-76
2022/09/19 08:30:25;;;;;;;1.38;1.27;;;;;;;19.42;nan;-24357.59;5015861;28;20195;-81
2022/09/19 08:32:51;;;;;;;1.20;1.02;;;;;;;19.39;nan;-24356.78;5015268;28;20172;-75
2022/09/19 08:35:18;;;;;;;1.08;0.98;;;;;;;19.38;nan;-24356.34;5015743;28;20172;-79
2022/09/19 08:37:44;;;;;;;1.63;1.40;;;;;;;19.69;nan;-24364.84;4998637;28;20666;-83
2022/09/19 08:40:25;;;;;;;1.58;1.33;;;;;;;19.83;nan;-24368.72;5015933;28;20187;-76
2022/09/19 08:43:28;;;;;;;1.20;1.10;;;;;;;19.92;nan;-24371.22;5015268;28;20159;-76
2022/09/19 08:46:11;;;;;;;1.23;1.02;;;;;;;20.06;nan;-24375.00;5013555;28;20265;-76
2022/09/19 08:48:53;;;;;;;1.50;1.20;;;;;;;20.17;nan;-24378.19;5014941;28;20639;-76
2022/09/19 08:51:21;;;;;;;2.28;1.00;;;;;;;20.13;nan;-24377.06;5013662;28;20267;-76
2022/09/19 08:53:51;;;;;;;1.42;1.15;;;;;;;20.05;nan;-24374.84;4996980;28;20182;-77
2022/09/19 08:56:18;;;;;;;1.27;0.75;;;;;;;20.19;nan;-24378.75;5015230;28;20263;-77
2022/09/19 08:58:57;;;;;;;1.17;1.08;;;;;;;20.46;nan;-24385.97;4997544;28;20195;-77
2022/09/19 09:01:23;;;;;;;0.80;0.80;;;;;;;20.49;nan;-24386.94;5016154;28;20167;-77
2022/09/19 09:04:11;;;;;;;1.25;1.08;;;;;;;20.70;nan;-24392.63;5015459;28;20230;-77
2022/09/19 09:06:55;;;;;;;1.00;1.00;;;;;;;20.92;nan;-24398.72;5014476;28;20672;-77
2022/09/19 09:09:55;;;;;;;1.67;1.38;;;;;;;21.01;nan;-24401.09;5015827;28;20267;-77
2022/09/19 09:12:40;;;;;;;1.70;1.17;;;;;;;20.67;nan;-24391.94;4998051;28;20179;-77
2022/09/19 09:15:20;;;;;;;1.38;1.10;;;;;;;20.56;nan;-24388.75;5022773;28;20204;-78
2022/09/19 09:18:10;;;;;;;1.63;1.33;;;;;;;20.54;nan;-24388.31;5025703;28;20190;-77
2022/09/19 09:20:50;;;;;;;1.60;1.27;;;;;;;20.32;nan;-24382.06;5014374;28;20195;-75
2022/09/19 09:23:34;;;;;;;1.52;1.27;;;;;;;20.44;nan;-24385.41;5016826;28;20168;-77
2022/09/19 09:26:09;;;;;;;2.47;1.38;;;;;;;20.70;nan;-24392.75;5000302;28;20248;-77
2022/09/19 09:28:46;;;;;;;1.75;1.65;;;;;;;20.44;nan;-24385.53;5016412;28;20175;-78
2022/09/19 09:31:36;;;;;;;1.98;1.45;;;;;;;20.36;nan;-24383.31;4997706;28;20183;-77
2022/09/19 09:34:09;;;;;;;3.28;1.80;;;;;;;20.53;nan;-24387.91;5014000;28;20187;-77
2022/09/19 09:36:42;;;;;;;6.90;1.67;;;;;;;20.37;nan;-24383.47;5014314;28;20176;-77
2022/09/19 09:39:20;;;;;;;1.63;1.45;;;;;;;20.10;nan;-24376.25;4996649;28;20258;-75
2022/09/19 09:41:52;;;;;;;1.50;1.25;;;;;;;19.94;nan;-24371.66;4996829;28;20230;-76
2022/09/19 09:44:30;;;;;;;1.38;1.27;;;;;;;19.96;nan;-24372.34;5014123;28;20202;-76
2022/09/19 09:47:03;;;;;;;2.50;1.40;;;;;;;19.68;nan;-24364.69;5014362;28;20689;-77
2022/09/19 09:49:30;;;;;;;1.30;1.20;;;;;;;19.97;nan;-24372.50;5013567;28;20172;-75
2022/09/19 09:52:17;;;;;;;3.30;1.30;;;;;;;20.10;nan;-24376.09;4996530;28;20203;-78
2022/09/19 09:57:55;;;;;;;1.88;1.50;;;;;;;19.94;nan;-24371.78;5014084;28;20194;-76
2022/09/19 10:03:34;;;;;;;1.27;1.05;;;;;;;20.00;nan;-24373.31;5014166;28;20235;-76
2022/09/19 10:06:30;;;;;;;1.20;1.10;;;;;;;19.80;nan;-24367.91;5016416;28;20199;-76
2022/09/19 10:09:08;;;;;;;1.20;1.10;;;;;;;19.98;nan;-24372.75;5015411;28;20180;-76
2022/09/19 10:11:42;;;;;;;3.00;1.30;;;;;;;20.43;nan;-24385.28;4996673;28;20179;-77
2022/09/19 10:14:18;;;;;;;1.15;1.05;;;;;;;20.92;nan;-24398.72;5015390;28;20651;-77
2022/09/19 10:16:47;;;;;;;1.27;1.17;;;;;;;20.80;nan;-24395.25;4998122;28;20207;-77
2022/09/19 10:19:38;;;;;;;1.10;1.05;;;;;;;21.07;nan;-24402.88;5015405;28;20627;-76
2022/09/19 10:22:07;;;;;;;1.00;1.00;;;;;;;21.11;nan;-24404.00;5014493;28;20182;-77
2022/09/19 10:24:46;;;;;;;0.90;0.90;;;;;;;21.38;nan;-24411.34;5014000;28;20190;-77
2022/09/19 10:27:38;;;;;;;0.70;0.70;;;;;;;21.45;nan;-24413.28;5013874;28;20224;-77
2022/09/19 10:30:19;;;;;;;0.90;0.90;;;;;;;21.52;nan;-24415.09;5006479;28;20184;-77
2022/09/19 10:32:46;;;;;;;1.13;0.95;;;;;;;21.54;nan;-24415.66;5013339;28;20184;-77
2022/09/19 10:35:36;;;;;;;1.00;0.90;;;;;;;21.06;nan;-24402.59;5014081;28;20669;-77
2022/09/19 10:38:13;;;;;;;0.80;0.80;;;;;;;20.88;nan;-24397.47;5013451;28;20194;-77
2022/09/19 10:40:52;;;;;;;1.00;0.90;;;;;;;20.83;nan;-24396.09;4994889;28;20171;-77
2022/09/19 10:43:23;;;;;;;0.90;0.82;;;;;;;20.85;nan;-24396.78;5012830;28;20179;-77
2022/09/19 10:45:49;;;;;;;0.80;0.80;;;;;;;20.76;nan;-24394.16;5011922;28;20247;-77
2022/09/19 10:48:22;;;;;;;0.85;0.80;;;;;;;20.80;nan;-24395.41;4994875;28;20176;-77
2022/09/19 10:50:48;;;;;;;0.80;0.80;;;;;;;21.02;nan;-24401.34;5011234;28;20168;-78
2022/09/19 10:53:22;;;;;;;1.15;0.90;;;;;;;20.74;nan;-24393.72;5013009;28;20267;-77
2022/09/19 10:55:48;;;;;;;1.00;0.95;;;;;;;21.19;nan;-24405.94;5013344;28;20160;-77
2022/09/19 10:58:26;;;;;;;0.93;0.93;;;;;;;21.07;nan;-24402.88;5013203;28;20279;-77
2022/09/19 11:01:04;;;;;;;1.40;1.08;;;;;;;21.08;nan;-24403.03;5013932;28;20218;-77
2022/09/19 11:03:35;;;;;;;1.10;1.00;;;;;;;21.09;nan;-24403.44;5013850;28;20238;-76
2022/09/19 11:06:12;;;;;;;0.93;0.70;;;;;;;21.11;nan;-24404.00;4995608;28;20725;-77
2022/09/19 11:08:49;;;;;;;1.33;1.20;;;;;;;20.95;nan;-24399.41;4995875;28;20250;-77
2022/09/19 11:11:37;;;;;;;0.90;0.90;;;;;;;21.20;nan;-24406.22;4995641;28;20263;-77
2022/09/19 11:14:35;;;;;;;1.50;1.10;;;;;;;20.93;nan;-24398.88;4994819;28;20202;-77
2022/09/19 11:17:29;;;;;;;0.80;0.80;;;;;;;20.67;nan;-24391.78;5013600;28;20180;-76
2022/09/19 11:20:00;;;;;;;1.38;1.08;;;;;;;20.90;nan;-24398.03;5014639;28;20702;-76
2022/09/19 11:23:05;;;;;;;0.85;0.85;;;;;;;21.33;nan;-24409.81;5013747;28;20543;-77
2022/09/19 11:25:58;;;;;;;0.80;0.60;;;;;;;21.59;nan;-24417.03;5013216;28;20198;-77
2022/09/19 11:28:51;;;;;;;0.63;0.63;;;;;;;21.41;nan;-24412.19;4988130;28;20188;-76
2022/09/19 11:31:47;;;;;;;0.85;0.85;;;;;;;21.26;nan;-24408.03;5015654;28;21225;-76
2022/09/19 11:34:36;;;;;;;1.15;1.00;;;;;;;21.31;nan;-24409.28;5030705;28;20175;-77
2022/09/19 11:37:27;;;;;;;1.42;1.05;;;;;;;21.59;nan;-24417.03;5030332;28;20172;-77
2022/09/19 11:40:10;;;;;;;0.80;0.80;;;;;;;21.58;nan;-24416.88;5031839;28;20166;-77
2022/09/19 11:42:49;;;;;;;1.05;0.95;;;;;;;21.70;nan;-24419.94;5032024;28;20604;-76
2022/09/19 11:45:19;;;;;;;1.10;1.00;;;;;;;22.23;nan;-24434.47;5032130;28;20210;-77
2022/09/19 11:48:18;;;;;;;0.90;0.90;;;;;;;21.95;nan;-24427.00;5032462;28;20160;-79
2022/09/19 11:50:46;;;;;;;0.98;0.95;;;;;;;21.77;nan;-24421.88;5031947;28;20207;-75
2022/09/19 11:54:02;;;;;;;1.45;1.10;;;;;;;21.10;nan;-24403.72;5032255;28;20179;-78
2022/09/19 11:56:36;;;;;;;0.90;0.90;;;;;;;21.34;nan;-24410.09;5010025;28;20186;-77
2022/09/19 11:59:46;;;;;;;1.10;0.90;;;;;;;21.41;nan;-24412.03;5010623;28;20168;-77
2022/09/19 12:02:49;;;;;;;0.80;0.80;;;;;;;21.49;nan;-24414.25;5029321;28;20280;-76
2022/09/19 12:05:15;;;;;;;0.80;0.80;;;;;;;21.32;nan;-24409.53;5031443;28;20645;-78
2022/09/19 12:08:11;;;;;;;1.20;1.10;;;;;;;21.50;nan;-24414.53;5032647;28;20241;-76
2022/09/19 12:10:43;;;;;;;0.90;0.90;;;;;;;21.55;nan;-24416.06;5032505;28;20179;-76
2022/09/19 12:13:35;;;;;;;1.08;1.00;;;;;;;21.45;nan;-24413.28;5030810;28;20599;-76
2022/09/19 12:16:10;;;;;;;0.95;0.90;;;;;;;21.09;nan;-24403.31;5021909;28;20678;-77
2022/09/19 12:18:50;;;;;;;1.38;1.00;;;;;;;21.24;nan;-24407.31;5032440;28;20214;-76
2022/09/19 12:21:19;;;;;;;1.38;0.80;;;;;;;21.09;nan;-24403.44;5031209;28;20175;-75
2022/09/19 12:26:53;;;;;;;0.90;0.90;;;;;;;21.41;nan;-24412.03;5031625;28;20324;-72
2022/09/19 12:29:42;;;;;;;1.13;1.02;;;;;;;21.54;nan;-24415.78;5031114;28;20197;-69
2022/09/19 12:32:16;;;;;;;1.00;1.00;;;;;;;21.33;nan;-24409.97;5032465;28;20498;-72